Time;durP1;ratioP1;P1;durP2;ratioP2;P2;SDS_P1;SDS_P2;PMS_P1;PMS_P2;Temp;Humidity;BMP_temperature;BMP_pressure;BME280_temperature;BME280_humidity;BME280_pressure;Samples;Min_cycle;Max_cycle;Signal;HPM_P1;HPM_P2
2021/04/06 00:04:25;;;;;;;9.77;5.70;;;13.80;38.90;;;;;;10185476;28;20044;-76
2021/04/06 00:09:21;;;;;;;10.05;5.43;;;14.20;39.00;;;;;;10185465;28;20056;-77
2021/04/06 00:14:16;;;;;;;11.35;5.68;;;12.70;39.20;;;;;;10183958;28;20052;-74
2021/04/06 00:19:12;;;;;;;10.20;5.25;;;13.40;39.60;;;;;;10184009;28;20050;-77
2021/04/06 00:24:07;;;;;;;10.07;5.88;;;12.60;38.40;;;;;;10183640;28;20094;-76
2021/04/06 00:29:00;;;;;;;7.57;4.63;;;14.80;40.20;;;;;;10186183;28;20050;-77
2021/04/06 00:33:56;;;;;;;8.77;4.88;;;13.40;38.90;;;;;;10183062;28;20105;-78
2021/04/06 00:38:51;;;;;;;11.07;5.15;;;11.40;38.80;;;;;;10184249;28;20055;-79
2021/04/06 00:43:45;;;;;;;12.18;5.50;;;13.50;39.40;;;;;;10184231;28;20055;-78
2021/04/06 00:48:42;;;;;;;9.63;5.15;;;13.00;39.10;;;;;;10183293;28;20040;-77
2021/04/06 00:54:00;;;;;;;10.68;5.47;;;12.50;39.20;;;;;;10180551;28;20069;-75
2021/04/06 00:58:54;;;;;;;10.63;5.40;;;12.20;40.10;;;;;;10169014;28;20132;-77
2021/04/06 01:03:48;;;;;;;10.55;5.80;;;;;;;;;;10182858;28;20051;-78
2021/04/06 01:08:41;;;;;;;11.68;6.22;;;12.20;40.30;;;;;;10182732;28;20044;-78
2021/04/06 01:13:35;;;;;;;15.77;6.03;;;11.30;40.10;;;;;;10179767;28;20047;-76
2021/04/06 01:18:30;;;;;;;18.15;4.10;;;12.90;41.20;;;;;;10180320;28;20047;-76
2021/04/06 01:23:25;;;;;;;2.78;1.65;;;13.10;42.60;;;;;;10182312;28;20042;-76
2021/04/06 01:28:18;;;;;;;2.53;2.08;;;11.80;45.20;;;;;;10182059;28;20039;-75
2021/04/06 01:33:11;;;;;;;5.57;1.95;;;11.10;46.30;;;;;;10182406;28;20063;-75
2021/04/06 01:38:05;;;;;;;2.13;1.77;;;10.10;46.90;;;;;;10181055;28;20149;-76
2021/04/06 01:43:00;;;;;;;2.42;1.88;;;10.70;48.90;;;;;;10181507;28;20058;-76
2021/04/06 01:47:53;;;;;;;3.50;1.50;;;11.80;50.10;;;;;;10181447;28;20094;-75
2021/04/06 01:52:49;;;;;;;0.90;0.90;;;10.60;50.10;;;;;;10182047;28;20048;-76
2021/04/06 01:57:46;;;;;;;2.67;0.90;;;9.80;51.60;;;;;;10181478;28;20486;-76
2021/04/06 02:02:42;;;;;;;1.08;0.73;;;9.60;51.90;;;;;;10162091;28;20462;-76
2021/04/06 02:07:38;;;;;;;0.80;0.60;;;7.20;52.80;;;;;;10181526;28;20048;-77
2021/04/06 02:12:37;;;;;;;0.98;0.50;;;7.50;54.10;;;;;;10180575;28;20387;-76
2021/04/06 02:17:30;;;;;;;0.30;0.30;;;8.30;56.20;;;;;;10180408;28;20051;-78
2021/04/06 02:22:25;;;;;;;0.28;0.28;;;7.60;54.70;;;;;;10180260;28;20047;-77
2021/04/06 02:27:19;;;;;;;0.60;0.60;;;6.70;56.10;;;;;;10180297;28;20050;-76
2021/04/06 02:32:14;;;;;;;0.63;0.60;;;6.70;56.90;;;;;;10180726;28;20119;-77
2021/04/06 02:37:11;;;;;;;0.60;0.60;;;7.70;58.30;;;;;;10179992;28;20048;-78
2021/04/06 02:42:21;;;;;;;1.05;0.68;;;7.40;57.80;;;;;;10180489;28;20063;-75
2021/04/06 02:47:15;;;;;;;0.97;0.87;;;;;;;;;;10180100;28;20070;-76
2021/04/06 02:52:09;;;;;;;1.77;1.10;;;7.60;59.40;;;;;;10178408;28;20285;-76
2021/04/06 02:57:22;;;;;;;1.55;1.00;;;8.50;60.40;;;;;;10178332;28;20052;-76
2021/04/06 03:02:14;;;;;;;0.80;0.80;;;7.90;59.20;;;;;;10179823;28;20052;-75
2021/04/06 03:07:17;;;;;;;1.45;0.70;;;7.90;58.60;;;;;;10178329;28;20050;-77
2021/04/06 03:12:11;;;;;;;0.80;0.65;;;7.30;57.80;;;;;;10182569;28;20509;-76
2021/04/06 03:17:04;;;;;;;1.33;0.95;;;8.30;58.40;;;;;;10188300;28;20060;-75
2021/04/06 03:21:57;;;;;;;1.20;1.10;;;;;;;;;;10187245;28;20040;-77
2021/04/06 03:26:51;;;;;;;0.75;0.75;;;7.70;58.10;;;;;;10187011;28;20048;-77
2021/04/06 03:31:46;;;;;;;0.63;0.60;;;;;;;;;;10186948;28;20435;-76
2021/04/06 03:36:41;;;;;;;1.63;0.85;;;7.80;57.10;;;;;;10187134;28;20044;-77
2021/04/06 03:41:35;;;;;;;1.05;0.70;;;7.70;57.10;;;;;;10186401;28;20059;-77
2021/04/06 03:46:28;;;;;;;1.20;1.10;;;8.30;57.90;;;;;;10185677;28;20406;-75
2021/04/06 03:51:26;;;;;;;2.65;1.23;;;8.00;56.90;;;;;;10186468;28;20048;-78
2021/04/06 03:56:29;;;;;;;1.73;1.02;;;7.10;56.30;;;;;;10186346;28;20052;-76
2021/04/06 04:01:22;;;;;;;1.13;0.77;;;7.50;56.40;;;;;;10185883;28;20555;-76
2021/04/06 04:06:23;;;;;;;2.72;1.00;;;7.50;56.50;;;;;;10185459;28;20044;-76
2021/04/06 04:11:15;;;;;;;1.90;1.30;;;8.20;56.90;;;;;;10185472;28;20070;-76
2021/04/06 04:16:09;;;;;;;1.58;1.23;;;7.50;56.50;;;;;;10185245;28;20485;-76
2021/04/06 04:21:03;;;;;;;2.97;1.70;;;6.90;56.90;;;;;;10185117;28;20074;-77
2021/04/06 04:25:56;;;;;;;2.80;1.50;;;;;;;;;;10183863;28;20121;-76
2021/04/06 04:30:50;;;;;;;4.82;1.70;;;7.60;56.40;;;;;;10184267;28;20063;-75
2021/04/06 04:35:44;;;;;;;2.15;1.50;;;7.50;57.10;;;;;;10184563;28;20105;-76
2021/04/06 04:40:42;;;;;;;2.47;1.63;;;6.80;56.60;;;;;;10183686;28;20056;-76
2021/04/06 04:45:34;;;;;;;2.20;1.65;;;8.70;57.40;;;;;;10184064;28;20055;-76
2021/04/06 04:50:27;;;;;;;3.67;1.95;;;8.10;57.20;;;;;;10183614;28;20131;-77
2021/04/06 04:55:21;;;;;;;2.10;1.65;;;;;;;;;;10180985;28;20052;-76
2021/04/06 05:00:19;;;;;;;3.95;1.75;;;7.30;56.40;;;;;;10183928;28;20048;-77
2021/04/06 05:05:15;;;;;;;3.42;1.92;;;7.50;56.40;;;;;;10183270;28;20048;-76
2021/04/06 05:10:09;;;;;;;2.72;1.85;;;7.40;55.30;;;;;;10182286;28;20055;-77
2021/04/06 05:15:04;;;;;;;3.80;1.90;;;5.30;53.70;;;;;;10182185;28;20056;-75
2021/04/06 05:19:57;;;;;;;9.05;2.50;;;7.70;55.10;;;;;;10182463;28;20119;-77
2021/04/06 05:24:49;;;;;;;3.40;1.88;;;7.50;55.80;;;;;;10181051;28;20048;-76
2021/04/06 05:29:42;;;;;;;9.70;2.72;;;;;;;;;;10181928;28;20538;-75
2021/04/06 05:34:36;;;;;;;4.95;2.15;;;6.80;55.10;;;;;;10181335;28;20049;-76
2021/04/06 05:39:29;;;;;;;6.65;2.13;;;7.20;55.10;;;;;;10180445;28;20056;-75
2021/04/06 05:44:23;;;;;;;3.97;1.70;;;5.50;53.10;;;;;;10181530;28;20058;-75
2021/04/06 05:49:20;;;;;;;4.25;1.92;;;5.60;54.10;;;;;;10180604;28;20044;-75
2021/04/06 05:54:15;;;;;;;6.53;2.00;;;8.10;54.20;;;;;;10180946;28;20044;-75
2021/04/06 05:59:09;;;;;;;5.70;1.70;;;7.30;54.70;;;;;;10182678;28;20340;-76
2021/04/06 06:04:03;;;;;;;5.50;2.45;;;5.00;53.40;;;;;;10180731;28;20067;-75
2021/04/06 06:08:58;;;;;;;4.22;1.45;;;8.40;54.70;;;;;;10178738;28;20039;-75
2021/04/06 06:13:52;;;;;;;5.00;1.60;;;7.50;54.20;;;;;;10180150;28;20043;-75
2021/04/06 06:19:02;;;;;;;7.57;1.50;;;6.70;52.20;;;;;;10179961;28;20359;-74
2021/04/06 06:23:55;;;;;;;5.82;1.65;;;7.90;54.10;;;;;;10179433;28;20398;-76
2021/04/06 06:29:08;;;;;;;3.72;1.80;;;6.20;51.70;;;;;;10178847;28;20048;-76
2021/04/06 06:34:02;;;;;;;5.93;1.77;;;;;;;;;;10179402;28;20051;-75
2021/04/06 06:39:02;;;;;;;2.95;1.77;;;;;;;;;;10178891;28;20597;-76
2021/04/06 06:43:57;;;;;;;5.65;1.73;;;5.30;51.00;;;;;;10178319;28;20165;-75
2021/04/06 06:48:55;;;;;;;8.75;2.58;;;7.60;53.20;;;;;;10177877;28;20466;-76
2021/04/06 06:53:49;;;;;;;5.30;2.43;;;7.60;53.20;;;;;;10176942;28;20123;-75
2021/04/06 06:58:43;;;;;;;4.00;2.28;;;;;;;;;;10175084;28;20107;-75
2021/04/06 07:03:36;;;;;;;6.30;2.10;;;;;;;;;;10178334;28;20475;-76
2021/04/06 07:08:31;;;;;;;6.07;2.20;;;5.00;50.70;;;;;;10178433;28;20036;-76
2021/04/06 07:13:29;;;;;;;4.10;2.03;;;7.20;51.60;;;;;;10178087;28;20052;-74
2021/04/06 07:18:26;;;;;;;;;;;5.50;50.60;;;;;;10178610;28;20414;-75
2021/04/06 07:23:30;;;;;;;5.45;2.30;;;7.90;52.00;;;;;;10177637;28;19924;-77
2021/04/06 07:28:26;;;;;;;6.45;2.30;;;;;;;;;;10178054;28;20055;-76
2021/04/06 07:33:21;;;;;;;7.72;2.42;;;6.80;51.80;;;;;;10175974;28;20054;-79
2021/04/06 07:38:13;;;;;;;9.32;2.58;;;8.40;52.00;;;;;;10175816;28;20105;-76
2021/04/06 07:43:07;;;;;;;6.70;2.75;;;;;;;;;;10172853;28;20044;-76
2021/04/06 07:48:02;;;;;;;3.58;2.13;;;8.00;51.40;;;;;;10169589;28;20238;-75
2021/04/06 07:53:20;;;;;;;6.07;2.22;;;8.00;50.60;;;;;;10172687;28;20046;-75
2021/04/06 07:58:45;;;;;;;3.33;2.20;;;5.50;50.00;;;;;;10176688;28;20051;-75
2021/04/06 08:04:01;;;;;;;4.68;2.75;;;7.30;49.40;;;;;;10183226;28;20439;-75
2021/04/06 08:08:54;;;;;;;7.70;2.60;;;6.40;49.80;;;;;;10182096;28;20048;-75
2021/04/06 08:13:47;;;;;;;4.72;2.60;;;;;;;;;;10182567;28;20106;-76
2021/04/06 08:18:48;;;;;;;4.85;2.65;;;8.20;49.60;;;;;;10183219;28;20048;-75
2021/04/06 08:23:44;;;;;;;7.00;2.22;;;7.60;49.20;;;;;;10181930;28;20089;-75
2021/04/06 08:28:38;;;;;;;6.07;2.33;;;;;;;;;;10181977;28;20105;-74
2021/04/06 08:33:31;;;;;;;2.78;2.17;;;7.10;49.70;;;;;;10182892;28;20626;-75
2021/04/06 08:38:44;;;;;;;6.40;2.40;;;9.00;50.00;;;;;;10181157;28;20090;-75
2021/04/06 08:43:40;;;;;;;5.85;2.75;;;9.00;49.50;;;;;;10181767;28;20074;-75
2021/04/06 08:48:49;;;;;;;3.63;1.75;;;7.80;47.60;;;;;;10181731;28;20475;-75
2021/04/06 08:53:42;;;;;;;4.97;1.83;;;7.40;47.70;;;;;;10181368;28;20126;-75
2021/04/06 08:58:36;;;;;;;3.60;1.75;;;8.10;48.00;;;;;;10181330;28;20134;-76
2021/04/06 09:03:29;;;;;;;3.05;1.63;;;;;;;;;;10162300;28;20060;-75
2021/04/06 09:08:25;;;;;;;3.13;1.92;;;9.90;47.50;;;;;;10180274;28;20048;-75
2021/04/06 09:13:19;;;;;;;6.47;2.42;;;7.00;45.90;;;;;;10180571;28;20044;-75
2021/04/06 09:18:15;;;;;;;3.95;1.80;;;8.80;46.30;;;;;;10181006;28;20044;-75
2021/04/06 09:23:10;;;;;;;4.65;2.40;;;;;;;;;;10181377;28;20696;-75
2021/04/06 09:28:04;;;;;;;3.92;2.78;;;;;;;;;;10179460;28;20105;-75
2021/04/06 09:32:58;;;;;;;3.63;1.60;;;;;;;;;;10180942;28;20048;-76
2021/04/06 09:37:51;;;;;;;4.35;2.10;;;10.30;43.10;;;;;;10181096;28;20048;-76
2021/04/06 09:42:46;;;;;;;6.55;2.30;;;8.70;43.60;;;;;;10179488;28;20448;-76
2021/04/06 09:47:42;;;;;;;5.20;2.45;;;8.70;43.90;;;;;;10180531;28;20044;-75
2021/04/06 09:52:38;;;;;;;5.40;2.20;;;10.20;43.80;;;;;;10180638;28;20052;-75
2021/04/06 09:57:33;;;;;;;6.60;2.03;;;9.60;44.20;;;;;;10180891;28;20462;-75
2021/04/06 10:02:29;;;;;;;4.20;2.22;;;9.60;43.80;;;;;;10179288;28;20044;-75
2021/04/06 10:07:23;;;;;;;4.65;2.05;;;9.50;43.50;;;;;;10179914;28;20051;-76
2021/04/06 10:12:18;;;;;;;6.47;2.08;;;;;;;;;;10181004;28;20130;-75
2021/04/06 10:17:16;;;;;;;3.47;1.73;;;9.80;43.20;;;;;;10180159;28;20048;-75
2021/04/06 10:22:13;;;;;;;3.45;1.80;;;8.70;42.10;;;;;;10178595;28;20054;-75
2021/04/06 10:27:06;;;;;;;4.18;2.10;;;;;;;;;;10179395;28;20513;-76
2021/04/06 10:32:02;;;;;;;4.38;1.90;;;8.90;42.30;;;;;;10178460;28;20056;-76
2021/04/06 10:37:00;;;;;;;2.35;2.03;;;10.10;42.60;;;;;;10178215;28;20044;-76
2021/04/06 10:41:53;;;;;;;5.30;2.50;;;;;;;;;;10177276;28;20514;-75
2021/04/06 10:46:47;;;;;;;4.55;2.30;;;;;;;;;;10176466;28;20062;-75
2021/04/06 10:51:48;;;;;;;3.28;2.10;;;10.00;41.20;;;;;;10176483;28;20171;-75
2021/04/06 10:56:43;;;;;;;8.77;2.17;;;9.90;41.30;;;;;;10176989;28;20497;-75
2021/04/06 11:01:39;;;;;;;4.55;2.35;;;7.70;39.90;;;;;;10175531;28;20434;-76
2021/04/06 11:06:37;;;;;;;7.47;2.22;;;8.70;40.40;;;;;;10175840;28;20048;-76
2021/04/06 11:11:32;;;;;;;5.40;2.95;;;;;;;;;;10177183;28;20052;-76
2021/04/06 11:16:25;;;;;;;2.47;1.95;;;9.20;40.40;;;;;;10174799;28;20068;-77
2021/04/06 11:21:21;;;;;;;4.25;1.95;;;9.70;40.00;;;;;;10158518;28;20164;-76
2021/04/06 11:26:15;;;;;;;3.10;1.73;;;8.80;39.50;;;;;;10177647;28;20470;-76
2021/04/06 11:31:09;;;;;;;5.05;1.90;;;9.80;39.60;;;;;;10175387;28;20082;-75
2021/04/06 11:36:02;;;;;;;5.60;1.77;;;;;;;;;;10185881;28;20048;-76
2021/04/06 11:40:55;;;;;;;5.05;1.80;;;10.10;38.50;;;;;;10185590;28;20056;-75
2021/04/06 11:45:48;;;;;;;4.70;1.65;;;10.80;36.80;;;;;;10185603;28;20060;-76
2021/04/06 11:50:42;;;;;;;5.55;2.50;;;11.40;37.50;;;;;;10184438;28;20056;-75
2021/04/06 11:55:34;;;;;;;5.70;2.10;;;11.90;38.50;;;;;;10185482;28;20097;-77
2021/04/06 12:00:30;;;;;;;5.60;2.50;;;10.00;37.60;;;;;;10184564;28;20044;-79
2021/04/06 12:05:25;;;;;;;4.47;1.65;;;11.00;37.80;;;;;;10184471;28;20040;-78
2021/04/06 12:10:20;;;;;;;5.65;2.35;;;10.20;38.10;;;;;;10184431;28;20040;-78
2021/04/06 12:15:13;;;;;;;3.47;2.10;;;10.70;38.20;;;;;;10185110;28;20386;-78
2021/04/06 12:20:07;;;;;;;3.10;1.77;;;;;;;;;;10183131;28;20051;-79
2021/04/06 12:25:00;;;;;;;4.63;1.80;;;10.10;37.90;;;;;;10183638;28;20044;-77
2021/04/06 12:29:54;;;;;;;7.75;1.80;;;;;;;;;;10182699;28;20467;-78
2021/04/06 12:34:47;;;;;;;5.20;2.13;;;;;;;;;;10184119;28;20040;-77
2021/04/06 12:39:40;;;;;;;2.13;1.60;;;;;;;;;;10182302;28;20493;-77
2021/04/06 12:44:33;;;;;;;4.32;1.63;;;9.60;37.60;;;;;;10179639;28;20432;-80
2021/04/06 12:49:28;;;;;;;2.85;1.60;;;;;;;;;;10180446;28;20044;-80
2021/04/06 12:54:21;;;;;;;4.45;1.38;;;9.20;37.50;;;;;;10180494;28;20483;-78
2021/04/06 12:59:13;;;;;;;4.25;1.65;;;9.60;37.50;;;;;;10179876;28;20068;-76
2021/04/06 13:04:07;;;;;;;5.95;1.40;;;11.10;37.30;;;;;;10177064;28;20135;-74
2021/04/06 13:09:01;;;;;;;5.03;1.50;;;;;;;;;;10175927;28;20052;-78
2021/04/06 13:13:55;;;;;;;4.35;1.75;;;;;;;;;;10176714;28;20137;-77
2021/04/06 13:18:47;;;;;;;2.10;1.40;;;9.60;35.50;;;;;;10176962;28;20054;-77
2021/04/06 13:23:40;;;;;;;3.75;1.52;;;11.60;35.90;;;;;;10179248;28;20046;-77
2021/04/06 13:28:35;;;;;;;3.60;1.60;;;11.70;36.00;;;;;;10179420;28;20494;-77
2021/04/06 13:33:29;;;;;;;3.60;1.23;;;10.80;35.60;;;;;;10179777;28;20321;-77
2021/04/06 13:38:22;;;;;;;3.80;1.50;;;11.20;35.80;;;;;;10178536;28;20419;-77
2021/04/06 13:43:17;;;;;;;3.25;1.00;;;11.90;35.80;;;;;;10178414;28;20100;-79
2021/04/06 13:48:13;;;;;;;1.70;1.10;;;10.90;34.40;;;;;;10178193;28;20056;-76
2021/04/06 13:53:06;;;;;;;2.45;1.35;;;11.40;34.10;;;;;;10177918;28;20506;-79
2021/04/06 13:58:01;;;;;;;3.30;1.50;;;;;;;;;;10176801;28;20087;-78
2021/04/06 14:02:57;;;;;;;0.80;0.75;;;12.90;33.40;;;;;;10178714;28;20044;-78
2021/04/06 14:07:51;;;;;;;6.05;1.33;;;10.80;32.30;;;;;;10177897;28;20127;-78
2021/04/06 14:12:44;;;;;;;1.13;0.80;;;10.80;33.50;;;;;;10177996;28;20048;-79
2021/04/06 14:17:38;;;;;;;0.82;0.73;;;10.30;33.40;;;;;;10176950;28;20074;-78
2021/04/06 14:22:31;;;;;;;2.45;0.98;;;10.70;33.70;;;;;;10177599;28;20048;-78
2021/04/06 14:27:25;;;;;;;5.32;1.00;;;;;;;;;;10177775;28;20052;-78
2021/04/06 14:32:18;;;;;;;2.10;0.82;;;;;;;;;;10177347;28;20132;-81
2021/04/06 14:37:12;;;;;;;1.98;1.00;;;10.50;32.90;;;;;;10176526;28;20054;-81
2021/04/06 14:42:06;;;;;;;2.00;1.02;;;11.80;34.00;;;;;;10177158;28;20070;-82
2021/04/06 14:47:00;;;;;;;3.88;0.90;;;11.70;33.10;;;;;;10177364;28;20133;-81
2021/04/06 14:51:53;;;;;;;1.63;1.00;;;11.10;33.70;;;;;;10176790;28;20050;-78
2021/04/06 14:56:46;;;;;;;4.22;1.65;;;11.30;32.50;;;;;;10176750;28;20127;-78
2021/04/06 15:01:39;;;;;;;3.58;1.20;;;12.00;30.80;;;;;;10177648;28;20043;-77
2021/04/06 15:06:33;;;;;;;3.38;1.60;;;11.30;30.80;;;;;;10176345;28;20048;-76
2021/04/06 15:11:30;;;;;;;2.92;0.90;;;12.40;32.90;;;;;;10184817;28;20075;-77
2021/04/06 15:16:24;;;;;;;3.47;1.23;;;10.50;30.60;;;;;;10184818;28;20118;-78
2021/04/06 15:21:18;;;;;;;3.17;0.77;;;11.10;30.60;;;;;;10166570;28;20048;-76
2021/04/06 15:26:13;;;;;;;2.72;0.98;;;12.50;33.20;;;;;;10183606;28;20056;-76
2021/04/06 15:31:09;;;;;;;1.52;0.80;;;10.70;32.10;;;;;;10184378;28;20048;-75
2021/04/06 15:36:06;;;;;;;2.38;1.20;;;;;;;;;;10184364;28;20147;-76
2021/04/06 15:41:01;;;;;;;3.78;1.35;;;10.80;32.20;;;;;;10181758;28;20064;-77
2021/04/06 15:45:55;;;;;;;4.07;1.60;;;10.80;32.30;;;;;;10183030;28;20060;-76
2021/04/06 15:50:50;;;;;;;3.97;1.60;;;10.10;32.10;;;;;;10183097;28;20115;-76
2021/04/06 15:55:59;;;;;;;2.55;1.00;;;10.60;30.50;;;;;;10183930;28;20104;-75
2021/04/06 16:00:52;;;;;;;3.40;1.50;;;11.60;31.00;;;;;;10182654;28;20056;-76
2021/04/06 16:06:00;;;;;;;5.43;1.15;;;12.30;33.20;;;;;;10181194;28;20032;-78
2021/04/06 16:10:59;;;;;;;4.22;0.90;;;11.30;32.60;;;;;;10184537;28;20055;-77
2021/04/06 16:15:53;;;;;;;1.25;0.80;;;;;;;;;;10182810;28;20044;-81
2021/04/06 16:20:48;;;;;;;3.60;0.90;;;10.80;33.30;;;;;;10180363;28;20439;-78
2021/04/06 16:25:42;;;;;;;2.22;0.93;;;9.90;32.10;;;;;;10182451;28;20066;-79
2021/04/06 16:30:40;;;;;;;3.13;1.00;;;9.40;32.10;;;;;;10182461;28;20048;-77
2021/04/06 16:35:33;;;;;;;3.95;1.23;;;9.90;33.60;;;;;;10181621;28;20060;-74
2021/04/06 16:40:27;;;;;;;4.70;1.27;;;10.20;34.20;;;;;;10181550;28;20057;-76
2021/04/06 16:45:21;;;;;;;2.85;1.13;;;11.00;34.70;;;;;;10181865;28;20052;-76
2021/04/06 16:50:14;;;;;;;7.63;1.45;;;11.20;35.80;;;;;;10181203;28;20059;-77
2021/04/06 16:55:08;;;;;;;4.68;1.50;;;8.90;35.60;;;;;;10181389;28;20958;-76
2021/04/06 17:00:03;;;;;;;3.03;1.42;;;9.30;37.10;;;;;;10180893;28;20570;-76
2021/04/06 17:04:59;;;;;;;4.35;1.45;;;8.60;37.00;;;;;;10181339;28;20058;-76
2021/04/06 17:09:51;;;;;;;3.65;1.20;;;8.80;37.70;;;;;;10180393;28;20060;-76
2021/04/06 17:14:44;;;;;;;2.72;1.58;;;8.20;38.20;;;;;;10181010;28;20375;-77
2021/04/06 17:19:37;;;;;;;3.55;1.60;;;10.20;40.00;;;;;;10180586;28;20055;-78
2021/04/06 17:24:31;;;;;;;2.75;1.38;;;7.30;39.00;;;;;;10180638;28;20048;-78
2021/04/06 17:29:25;;;;;;;3.92;1.30;;;8.40;39.70;;;;;;10179162;28;20044;-80
2021/04/06 17:34:18;;;;;;;7.22;1.90;;;;;;;;;;10180085;28;20044;-78
2021/04/06 17:39:13;;;;;;;3.70;1.80;;;7.70;39.90;;;;;;10178790;28;20056;-78
2021/04/06 17:44:07;;;;;;;2.47;1.60;;;;;;;;;;10177032;28;20048;-78
2021/04/06 17:49:01;;;;;;;3.78;1.90;;;;;;;;;;10161768;28;20080;-79
2021/04/06 17:53:54;;;;;;;4.95;2.08;;;;;;;;;;10177766;28;20216;-83
2021/04/06 17:58:47;;;;;;;1.80;1.33;;;8.10;41.50;;;;;;10179421;28;20309;-80
2021/04/06 18:03:41;;;;;;;2.47;1.60;;;9.10;42.10;;;;;;10179427;28;20044;-79
2021/04/06 18:08:34;;;;;;;3.33;1.88;;;7.20;41.90;;;;;;10178988;28;20402;-78
2021/04/06 18:13:28;;;;;;;3.10;1.55;;;9.00;43.60;;;;;;10177297;28;20056;-76
2021/04/06 18:18:22;;;;;;;3.30;1.75;;;8.50;42.90;;;;;;10178672;28;20040;-76
2021/04/06 18:23:16;;;;;;;4.65;1.92;;;7.70;42.60;;;;;;10178989;28;20048;-77
2021/04/06 18:28:08;;;;;;;5.07;1.65;;;8.80;43.40;;;;;;10177121;28;20414;-76
2021/04/06 18:33:07;;;;;;;6.25;1.98;;;8.00;42.60;;;;;;10178324;28;20071;-76
2021/04/06 18:38:00;;;;;;;3.47;1.88;;;8.50;43.50;;;;;;10177994;28;20123;-77
2021/04/06 18:42:57;;;;;;;3.67;1.40;;;7.90;43.60;;;;;;10175875;28;20048;-78
2021/04/06 18:47:49;;;;;;;4.30;1.90;;;7.20;43.00;;;;;;10177536;28;20395;-78
2021/04/06 18:52:45;;;;;;;6.63;1.95;;;8.10;43.40;;;;;;10177791;28;20050;-77
2021/04/06 18:57:39;;;;;;;4.80;1.90;;;8.00;43.80;;;;;;10178786;28;20050;-78
2021/04/06 19:02:34;;;;;;;3.15;1.63;;;7.30;43.90;;;;;;10177530;28;20040;-78
2021/04/06 19:07:26;;;;;;;2.92;1.50;;;8.20;45.10;;;;;;10176686;28;20082;-77
2021/04/06 19:12:20;;;;;;;3.00;1.52;;;7.80;44.60;;;;;;10176143;28;20040;-77
2021/04/06 19:17:12;;;;;;;3.08;1.98;;;8.60;45.40;;;;;;10177281;28;20055;-77
2021/04/06 19:22:07;;;;;;;5.22;1.88;;;8.90;45.60;;;;;;10177092;28;20040;-77
2021/04/06 19:27:00;;;;;;;3.92;1.80;;;8.50;45.70;;;;;;10177130;28;20422;-77
2021/04/06 19:31:53;;;;;;;5.28;2.20;;;8.30;45.90;;;;;;10177856;28;20052;-79
2021/04/06 19:36:46;;;;;;;5.05;1.90;;;8.60;46.10;;;;;;10177978;28;20044;-77
2021/04/06 19:41:40;;;;;;;3.75;1.80;;;8.00;45.80;;;;;;10177144;28;20056;-80
2021/04/06 19:46:33;;;;;;;3.72;1.73;;;7.90;46.10;;;;;;10176843;28;20063;-78
2021/04/06 19:51:27;;;;;;;2.42;1.63;;;8.40;46.60;;;;;;10176803;28;20048;-78
2021/04/06 19:56:20;;;;;;;2.28;1.73;;;8.00;46.70;;;;;;10182675;28;20040;-79
2021/04/06 20:01:14;;;;;;;3.20;1.85;;;7.70;46.50;;;;;;10183307;28;20071;-80
2021/04/06 20:06:07;;;;;;;2.13;1.50;;;7.70;46.60;;;;;;10186119;28;20040;-79
2021/04/06 20:11:20;;;;;;;2.35;1.50;;;8.00;47.00;;;;;;10184562;28;20044;-80
2021/04/06 20:16:15;;;;;;;6.68;2.30;;;5.70;46.00;;;;;;10182861;28;20048;-79
2021/04/06 20:21:12;;;;;;;3.85;2.33;;;8.20;47.30;;;;;;10183345;28;20040;-80
2021/04/06 20:26:07;;;;;;;2.90;1.83;;;6.60;47.60;;;;;;10183197;28;20053;-77
2021/04/06 20:31:01;;;;;;;5.00;2.08;;;7.70;46.90;;;;;;10182837;28;20044;-77
2021/04/06 20:35:55;;;;;;;2.72;1.60;;;7.00;47.40;;;;;;10182537;28;20108;-81
2021/04/06 20:40:49;;;;;;;5.13;1.67;;;7.10;47.60;;;;;;10182389;28;20105;-80
2021/04/06 20:45:42;;;;;;;2.13;1.55;;;5.70;46.80;;;;;;10182976;28;20047;-79
2021/04/06 20:50:35;;;;;;;4.07;2.10;;;;;;;;;;10182247;28;20062;-79
2021/04/06 20:55:29;;;;;;;2.65;1.60;;;7.40;48.70;;;;;;10181770;28;20050;-80
2021/04/06 21:00:30;;;;;;;5.28;1.98;;;7.30;48.10;;;;;;10181979;28;20040;-79
2021/04/06 21:05:23;;;;;;;4.20;1.80;;;7.70;48.90;;;;;;10180732;28;20500;-76
2021/04/06 21:10:16;;;;;;;4.57;2.00;;;7.10;48.20;;;;;;10181150;28;20044;-78
2021/04/06 21:15:11;;;;;;;14.45;2.40;;;7.90;48.80;;;;;;10180716;28;20063;-76
2021/04/06 21:20:05;;;;;;;7.45;2.33;;;8.50;49.60;;;;;;10179745;28;20052;-76
2021/04/06 21:25:00;;;;;;;4.75;2.25;;;7.90;50.00;;;;;;10180680;28;20498;-79
2021/04/06 21:29:52;;;;;;;8.30;2.50;;;7.60;49.50;;;;;;10180165;28;20047;-79
2021/04/06 21:34:46;;;;;;;3.08;2.33;;;5.50;47.60;;;;;;10180024;28;20052;-79
2021/04/06 21:39:39;;;;;;;4.32;2.28;;;8.00;49.20;;;;;;10179913;28;20441;-78
2021/04/06 21:44:32;;;;;;;6.88;2.15;;;;;;;;;;10180282;28;20050;-80
2021/04/06 21:49:24;;;;;;;5.97;2.50;;;8.00;49.50;;;;;;10178724;28;20048;-81
2021/04/06 21:54:18;;;;;;;7.30;2.38;;;7.90;49.40;;;;;;10179467;28;20044;-81
2021/04/06 21:59:11;;;;;;;8.00;2.38;;;6.60;49.90;;;;;;10178332;28;20047;-79
2021/04/06 22:04:04;;;;;;;2.67;1.88;;;6.20;49.50;;;;;;10175308;28;20051;-78
2021/04/06 22:08:57;;;;;;;3.47;2.22;;;7.90;49.90;;;;;;10177706;28;20490;-79
2021/04/06 22:13:50;;;;;;;5.50;2.00;;;7.60;50.00;;;;;;10178898;28;20418;-83
2021/04/06 22:18:43;;;;;;;3.90;2.25;;;8.20;51.10;;;;;;10176524;28;20406;-76
2021/04/06 22:23:36;;;;;;;4.85;2.22;;;5.70;49.40;;;;;;10175061;28;20070;-77
2021/04/06 22:28:31;;;;;;;4.50;2.08;;;;;;;;;;10175229;28;20055;-77
2021/04/06 22:33:26;;;;;;;4.00;2.55;;;5.40;50.10;;;;;;10177000;28;20040;-78
2021/04/06 22:38:20;;;;;;;5.88;2.38;;;7.50;50.30;;;;;;10178674;28;20126;-77
2021/04/06 22:43:16;;;;;;;4.63;2.30;;;6.00;50.10;;;;;;10176635;28;20494;-80
2021/04/06 22:48:09;;;;;;;5.15;2.88;;;;;;;;;;10176798;28;20044;-77
2021/04/06 22:53:05;;;;;;;5.55;2.25;;;6.60;50.90;;;;;;10177547;28;20093;-76
2021/04/06 22:57:59;;;;;;;6.75;2.50;;;;;;;;;;10176992;28;20505;-78
2021/04/06 23:02:52;;;;;;;3.40;2.47;;;7.20;50.80;;;;;;10177075;28;20047;-77
2021/04/06 23:07:45;;;;;;;4.68;2.58;;;5.30;49.90;;;;;;10177934;28;20490;-78
2021/04/06 23:12:39;;;;;;;5.90;2.90;;;7.60;51.00;;;;;;10177716;28;20069;-76
2021/04/06 23:17:32;;;;;;;5.95;3.13;;;6.20;50.50;;;;;;10177575;28;20052;-78
2021/04/06 23:22:24;;;;;;;4.15;2.80;;;7.70;51.70;;;;;;10177319;28;20048;-76
2021/04/06 23:27:17;;;;;;;5.03;3.13;;;7.60;51.40;;;;;;10177224;28;20055;-77
2021/04/06 23:32:11;;;;;;;6.35;3.22;;;6.80;51.90;;;;;;10185057;28;20460;-78
2021/04/06 23:37:04;;;;;;;6.57;3.17;;;4.60;51.00;;;;;;10184179;28;20052;-79
2021/04/06 23:41:56;;;;;;;7.13;3.28;;;5.50;51.40;;;;;;10185111;28;20073;-77
2021/04/06 23:46:49;;;;;;;4.82;3.05;;;5.10;51.20;;;;;;10184632;28;20048;-77
2021/04/06 23:51:43;;;;;;;4.60;2.85;;;7.60;52.60;;;;;;10184827;28;20052;-78
2021/04/06 23:56:36;;;;;;;4.68;2.78;;;6.80;52.20;;;;;;10183094;28;20059;-79
